sensor_id;sensor_type;location;lat;lon;timestamp;pressure;altitude;pressure_sealevel;temperature;humidity
34124;BME280;13153;52.316;21.166;2023-01-25T00:01:46;102528.22;;;7.10;59.95
34124;BME280;13153;52.316;21.166;2023-01-25T00:04:12;102526.38;;;7.09;60.03
34124;BME280;13153;52.316;21.166;2023-01-25T00:06:38;102508.06;;;7.09;59.73
34124;BME280;13153;52.316;21.166;2023-01-25T00:09:04;102509.53;;;7.06;59.38
34124;BME280;13153;52.316;21.166;2023-01-25T00:11:30;102514.91;;;7.07;60.02
34124;BME280;13153;52.316;21.166;2023-01-25T00:13:56;102513.88;;;7.05;59.14
34124;BME280;13153;52.316;21.166;2023-01-25T00:16:22;102512.84;;;7.03;58.82
34124;BME280;13153;52.316;21.166;2023-01-25T00:18:48;102508.28;;;7.01;58.33
34124;BME280;13153;52.316;21.166;2023-01-25T00:21:18;102501.81;;;6.95;58.51
34124;BME280;13153;52.316;21.166;2023-01-25T00:23:44;102493.84;;;6.94;58.59
34124;BME280;13153;52.316;21.166;2023-01-25T00:26:10;102490.41;;;6.95;58.40
34124;BME280;13153;52.316;21.166;2023-01-25T00:28:36;102490.41;;;6.95;58.13
34124;BME280;13153;52.316;21.166;2023-01-25T00:31:05;102485.00;;;6.92;58.52
34124;BME280;13153;52.316;21.166;2023-01-25T00:39:06;102490.00;;;6.89;58.19
34124;BME280;13153;52.316;21.166;2023-01-25T00:41:35;102493.19;;;6.85;57.82
34124;BME280;13153;52.316;21.166;2023-01-25T00:44:01;102482.59;;;6.83;58.08
34124;BME280;13153;52.316;21.166;2023-01-25T00:46:27;102474.63;;;6.82;57.73
34124;BME280;13153;52.316;21.166;2023-01-25T00:48:53;102473.16;;;6.85;57.64
34124;BME280;13153;52.316;21.166;2023-01-25T00:51:20;102469.84;;;6.88;57.66
34124;BME280;13153;52.316;21.166;2023-01-25T00:53:46;102469.84;;;6.88;56.98
34124;BME280;13153;52.316;21.166;2023-01-25T00:56:12;102463.72;;;6.87;57.29
34124;BME280;13153;52.316;21.166;2023-01-25T00:58:39;102459.38;;;6.88;58.03
34124;BME280;13153;52.316;21.166;2023-01-25T01:01:05;102462.81;;;6.87;57.19
34124;BME280;13153;52.316;21.166;2023-01-25T01:03:31;102465.41;;;6.87;57.86
34124;BME280;13153;52.316;21.166;2023-01-25T01:06:06;102467.81;;;6.84;57.50
34124;BME280;13153;52.316;21.166;2023-01-25T01:08:32;102466.78;;;6.82;57.28
34124;BME280;13153;52.316;21.166;2023-01-25T01:11:01;102467.34;;;6.78;57.14
34124;BME280;13153;52.316;21.166;2023-01-25T01:13:28;102450.16;;;6.81;57.46
34124;BME280;13153;52.316;21.166;2023-01-25T01:15:55;102458.03;;;6.81;56.94
34124;BME280;13153;52.316;21.166;2023-01-25T01:18:22;102465.28;;;6.74;56.51
34124;BME280;13153;52.316;21.166;2023-01-25T01:20:56;102464.03;;;6.69;56.39
34124;BME280;13153;52.316;21.166;2023-01-25T01:23:22;102462.09;;;6.66;56.56
34124;BME280;13153;52.316;21.166;2023-01-25T01:25:48;102472.13;;;6.72;57.10
34124;BME280;13153;52.316;21.166;2023-01-25T01:28:13;102467.00;;;6.73;56.21
34124;BME280;13153;52.316;21.166;2023-01-25T01:30:39;102468.94;;;6.76;56.70
34124;BME280;13153;52.316;21.166;2023-01-25T01:33:06;102461.09;;;6.76;56.54
34124;BME280;13153;52.316;21.166;2023-01-25T01:35:31;102458.25;;;6.73;56.60
34124;BME280;13153;52.316;21.166;2023-01-25T01:37:58;102456.66;;;6.75;56.91
34124;BME280;13153;52.316;21.166;2023-01-25T01:40:25;102453.91;;;6.73;56.33
34124;BME280;13153;52.316;21.166;2023-01-25T01:43:12;102452.78;;;6.70;56.74
34124;BME280;13153;52.316;21.166;2023-01-25T01:48:33;102454.47;;;6.69;56.08
34124;BME280;13153;52.316;21.166;2023-01-25T01:54:06;102448.09;;;6.66;56.21
34124;BME280;13153;52.316;21.166;2023-01-25T01:59:18;102440.72;;;6.72;56.70
34124;BME280;13153;52.316;21.166;2023-01-25T02:01:45;102440.72;;;6.72;56.09
34124;BME280;13153;52.316;21.166;2023-01-25T02:04:12;102439.81;;;6.71;56.28
34124;BME280;13153;52.316;21.166;2023-01-25T02:07:05;102432.75;;;6.70;56.34
34124;BME280;13153;52.316;21.166;2023-01-25T02:09:36;102429.78;;;6.66;55.90
34124;BME280;13153;52.316;21.166;2023-01-25T02:12:04;102425.25;;;6.63;56.29
34124;BME280;13153;52.316;21.166;2023-01-25T02:14:31;102424.34;;;6.62;56.28
34124;BME280;13153;52.316;21.166;2023-01-25T02:16:58;102424.34;;;6.62;56.21
34124;BME280;13153;52.316;21.166;2023-01-25T02:22:26;102417.06;;;6.58;56.06
34124;BME280;13153;52.316;21.166;2023-01-25T02:25:15;102423.88;;;6.56;56.11
34124;BME280;13153;52.316;21.166;2023-01-25T02:27:52;102426.47;;;6.56;56.42
34124;BME280;13153;52.316;21.166;2023-01-25T02:30:19;102425.81;;;6.59;55.89
34124;BME280;13153;52.316;21.166;2023-01-25T02:32:45;102426.47;;;6.56;55.26
34124;BME280;13153;52.316;21.166;2023-01-25T02:35:22;102427.97;;;6.53;55.33
34124;BME280;13153;52.316;21.166;2023-01-25T02:37:49;102420.78;;;6.50;55.20
34124;BME280;13153;52.316;21.166;2023-01-25T02:40:17;102420.69;;;6.49;55.67
34124;BME280;13153;52.316;21.166;2023-01-25T02:42:44;102420.78;;;6.50;55.86
34124;BME280;13153;52.316;21.166;2023-01-25T02:45:16;102412.72;;;6.47;55.28
34124;BME280;13153;52.316;21.166;2023-01-25T02:47:44;102412.47;;;6.44;55.88
34124;BME280;13153;52.316;21.166;2023-01-25T02:50:10;102402.94;;;6.45;55.63
34124;BME280;13153;52.316;21.166;2023-01-25T02:52:36;102402.03;;;6.44;55.26
34124;BME280;13153;52.316;21.166;2023-01-25T02:55:01;102401.13;;;6.44;55.46
34124;BME280;13153;52.316;21.166;2023-01-25T02:57:27;102401.91;;;6.43;55.10
34124;BME280;13153;52.316;21.166;2023-01-25T02:59:53;102402.47;;;6.39;55.23
34124;BME280;13153;52.316;21.166;2023-01-25T03:02:19;102398.50;;;6.32;55.54
34124;BME280;13153;52.316;21.166;2023-01-25T03:04:44;102383.63;;;6.31;55.30
34124;BME280;13153;52.316;21.166;2023-01-25T03:07:10;102387.25;;;6.33;55.64
34124;BME280;13153;52.316;21.166;2023-01-25T03:09:36;102382.22;;;6.36;55.67
34124;BME280;13153;52.316;21.166;2023-01-25T03:12:02;102377.13;;;6.38;55.30
34124;BME280;13153;52.316;21.166;2023-01-25T03:14:27;102367.38;;;6.35;54.88
34124;BME280;13153;52.316;21.166;2023-01-25T03:16:53;102363.72;;;6.33;55.21
34124;BME280;13153;52.316;21.166;2023-01-25T03:19:19;102364.53;;;6.32;55.49
34124;BME280;13153;52.316;21.166;2023-01-25T03:21:45;102362.72;;;6.31;55.41
34124;BME280;13153;52.316;21.166;2023-01-25T03:24:11;102359.88;;;6.28;55.31
34124;BME280;13153;52.316;21.166;2023-01-25T03:26:37;102358.03;;;6.27;55.41
34124;BME280;13153;52.316;21.166;2023-01-25T03:29:22;102378.16;;;6.28;55.38
34124;BME280;13153;52.316;21.166;2023-01-25T03:31:48;102362.25;;;6.25;54.82
34124;BME280;13153;52.316;21.166;2023-01-25T03:34:14;102353.81;;;6.17;55.11
34124;BME280;13153;52.316;21.166;2023-01-25T03:36:40;102355.53;;;6.17;55.29
34124;BME280;13153;52.316;21.166;2023-01-25T03:39:05;102365.97;;;6.17;54.56
34124;BME280;13153;52.316;21.166;2023-01-25T03:41:31;102360.41;;;6.12;54.87
34124;BME280;13153;52.316;21.166;2023-01-25T03:43:57;102368.00;;;6.09;55.18
34124;BME280;13153;52.316;21.166;2023-01-25T03:46:23;102369.16;;;6.13;55.50
34124;BME280;13153;52.316;21.166;2023-01-25T03:48:48;102366.09;;;6.18;55.42
34124;BME280;13153;52.316;21.166;2023-01-25T03:51:14;102348.47;;;6.16;55.15
34124;BME280;13153;52.316;21.166;2023-01-25T03:53:40;102363.25;;;6.15;55.36
34124;BME280;13153;52.316;21.166;2023-01-25T03:56:09;102344.38;;;6.08;54.94
34124;BME280;13153;52.316;21.166;2023-01-25T03:58:37;102347.53;;;6.04;55.49
34124;BME280;13153;52.316;21.166;2023-01-25T04:01:06;102348.56;;;6.06;55.77
34124;BME280;13153;52.316;21.166;2023-01-25T04:03:32;102345.72;;;6.03;55.62
34124;BME280;13153;52.316;21.166;2023-01-25T04:05:59;102345.16;;;6.07;55.84
34124;BME280;13153;52.316;21.166;2023-01-25T04:08:25;102337.44;;;6.08;55.65
34124;BME280;13153;52.316;21.166;2023-01-25T04:10:54;102326.19;;;6.09;55.49
34124;BME280;13153;52.316;21.166;2023-01-25T04:13:22;102340.63;;;6.04;55.30
34124;BME280;13153;52.316;21.166;2023-01-25T04:15:48;102338.34;;;6.09;55.59
34124;BME280;13153;52.316;21.166;2023-01-25T04:18:15;102335.75;;;6.09;55.44
34124;BME280;13153;52.316;21.166;2023-01-25T04:20:42;102325.84;;;6.05;55.59
34124;BME280;13153;52.316;21.166;2023-01-25T04:23:09;102331.75;;;6.02;55.65
34124;BME280;13153;52.316;21.166;2023-01-25T04:25:35;102329.38;;;6.05;55.49
34124;BME280;13153;52.316;21.166;2023-01-25T04:28:01;102336.53;;;6.08;55.36
34124;BME280;13153;52.316;21.166;2023-01-25T04:30:27;102340.28;;;6.11;55.46
34124;BME280;13153;52.316;21.166;2023-01-25T04:32:53;102332.31;;;6.10;55.04
34124;BME280;13153;52.316;21.166;2023-01-25T04:35:19;102326.88;;;6.07;55.53
34124;BME280;13153;52.316;21.166;2023-01-25T04:37:57;102326.63;;;6.04;55.62
34124;BME280;13153;52.316;21.166;2023-01-25T04:40:23;102333.34;;;6.00;55.91
34124;BME280;13153;52.316;21.166;2023-01-25T04:42:49;102320.28;;;6.00;55.83
34124;BME280;13153;52.316;21.166;2023-01-25T04:45:15;102313.22;;;5.99;55.63
34124;BME280;13153;52.316;21.166;2023-01-25T04:47:41;102325.38;;;5.99;55.80
34124;BME280;13153;52.316;21.166;2023-01-25T04:50:07;102330.94;;;6.03;55.09
34124;BME280;13153;52.316;21.166;2023-01-25T04:52:33;102326.28;;;5.99;54.87
34124;BME280;13153;52.316;21.166;2023-01-25T04:54:59;102326.28;;;5.99;55.30
34124;BME280;13153;52.316;21.166;2023-01-25T04:57:25;102321.84;;;5.98;55.55
34124;BME280;13153;52.316;21.166;2023-01-25T04:59:51;102335.47;;;5.94;55.35
34124;BME280;13153;52.316;21.166;2023-01-25T05:02:16;102325.25;;;5.97;55.22
34124;BME280;13153;52.316;21.166;2023-01-25T05:04:42;102328.78;;;5.97;55.23
34124;BME280;13153;52.316;21.166;2023-01-25T05:07:08;102322.06;;;5.89;54.28
34124;BME280;13153;52.316;21.166;2023-01-25T05:09:34;102321.69;;;5.85;54.49
34124;BME280;13153;52.316;21.166;2023-01-25T05:12:00;102319.38;;;5.78;54.23
34124;BME280;13153;52.316;21.166;2023-01-25T05:14:25;102321.44;;;5.70;54.35
34124;BME280;13153;52.316;21.166;2023-01-25T05:16:51;102328.91;;;5.66;55.07
34124;BME280;13153;52.316;21.166;2023-01-25T05:19:17;102320.19;;;5.65;54.83
34124;BME280;13153;52.316;21.166;2023-01-25T05:21:43;102312.34;;;5.65;55.08
34124;BME280;13153;52.316;21.166;2023-01-25T05:24:29;102312.91;;;5.61;54.68
34124;BME280;13153;52.316;21.166;2023-01-25T05:26:57;102314.34;;;5.57;54.52
34124;BME280;13153;52.316;21.166;2023-01-25T05:29:27;102315.16;;;5.56;54.95
34124;BME280;13153;52.316;21.166;2023-01-25T05:31:54;102314.00;;;5.53;54.97
34124;BME280;13153;52.316;21.166;2023-01-25T05:34:19;102312.31;;;5.53;55.47
34124;BME280;13153;52.316;21.166;2023-01-25T05:36:45;102310.47;;;5.52;55.46
34124;BME280;13153;52.316;21.166;2023-01-25T05:39:11;102307.09;;;5.53;55.00
34124;BME280;13153;52.316;21.166;2023-01-25T05:41:37;102302.88;;;5.55;55.62
34124;BME280;13153;52.316;21.166;2023-01-25T05:44:03;102307.56;;;5.59;55.68
34124;BME280;13153;52.316;21.166;2023-01-25T05:46:29;102312.09;;;5.62;55.55
34124;BME280;13153;52.316;21.166;2023-01-25T05:48:55;102303.25;;;5.60;54.70
34124;BME280;13153;52.316;21.166;2023-01-25T05:51:21;102297.66;;;5.55;54.19
34124;BME280;13153;52.316;21.166;2023-01-25T05:53:47;102299.81;;;5.49;54.56
34124;BME280;13153;52.316;21.166;2023-01-25T05:56:13;102297.84;;;5.47;54.60
34124;BME280;13153;52.316;21.166;2023-01-25T05:58:38;102294.09;;;5.43;55.04
34124;BME280;13153;52.316;21.166;2023-01-25T06:01:06;102287.63;;;5.38;55.23
34124;BME280;13153;52.316;21.166;2023-01-25T06:03:33;102293.75;;;5.39;54.83
34124;BME280;13153;52.316;21.166;2023-01-25T06:06:01;102284.09;;;5.38;55.32
34124;BME280;13153;52.316;21.166;2023-01-25T06:08:31;102285.69;;;5.36;54.56
34124;BME280;13153;52.316;21.166;2023-01-25T06:10:57;102284.09;;;5.38;54.89
34124;BME280;13153;52.316;21.166;2023-01-25T06:13:23;102283.72;;;5.33;54.45
34124;BME280;13153;52.316;21.166;2023-01-25T06:15:54;102288.84;;;5.31;54.36
34124;BME280;13153;52.316;21.166;2023-01-25T06:18:22;102292.22;;;5.30;54.67
34124;BME280;13153;52.316;21.166;2023-01-25T06:20:50;102293.03;;;5.29;54.98
34124;BME280;13153;52.316;21.166;2023-01-25T06:23:16;102301.53;;;5.27;55.17
34124;BME280;13153;52.316;21.166;2023-01-25T06:25:42;102297.88;;;5.25;55.24
34124;BME280;13153;52.316;21.166;2023-01-25T06:28:08;102302.19;;;5.24;54.89
34124;BME280;13153;52.316;21.166;2023-01-25T06:30:35;102299.59;;;5.24;54.73
34124;BME280;13153;52.316;21.166;2023-01-25T06:33:01;102289.94;;;5.23;55.16
34124;BME280;13153;52.316;21.166;2023-01-25T06:35:27;102296.53;;;5.18;55.14
34124;BME280;13153;52.316;21.166;2023-01-25T06:37:57;102283.59;;;5.20;55.41
34124;BME280;13153;52.316;21.166;2023-01-25T06:40:25;102280.16;;;5.21;55.53
34124;BME280;13153;52.316;21.166;2023-01-25T06:42:51;102287.31;;;5.23;55.86
34124;BME280;13153;52.316;21.166;2023-01-25T06:45:17;102279.97;;;5.29;56.68
34124;BME280;13153;52.316;21.166;2023-01-25T06:47:43;102279.00;;;5.39;56.94
34124;BME280;13153;52.316;21.166;2023-01-25T06:50:09;102276.31;;;5.49;56.99
34124;BME280;13153;52.316;21.166;2023-01-25T06:52:35;102275.06;;;5.56;56.64
34124;BME280;13153;52.316;21.166;2023-01-25T06:55:03;102272.25;;;5.64;56.45
34124;BME280;13153;52.316;21.166;2023-01-25T06:57:29;102267.03;;;5.64;55.85
34124;BME280;13153;52.316;21.166;2023-01-25T06:59:55;102278.28;;;5.63;55.67
34124;BME280;13153;52.316;21.166;2023-01-25T07:02:20;102269.22;;;5.70;56.07
34124;BME280;13153;52.316;21.166;2023-01-25T07:04:47;102265.44;;;5.78;55.40
34124;BME280;13153;52.316;21.166;2023-01-25T07:07:13;102256.94;;;5.81;55.24
34124;BME280;13153;52.316;21.166;2023-01-25T07:09:39;102258.97;;;5.85;54.74
34124;BME280;13153;52.316;21.166;2023-01-25T07:12:05;102260.03;;;5.75;54.67
34124;BME280;13153;52.316;21.166;2023-01-25T07:14:32;102255.13;;;5.68;54.82
34124;BME280;13153;52.316;21.166;2023-01-25T07:16:58;102250.00;;;5.70;54.96
34124;BME280;13153;52.316;21.166;2023-01-25T07:19:24;102257.06;;;5.71;54.69
34124;BME280;13153;52.316;21.166;2023-01-25T07:21:50;102262.06;;;5.68;54.21
34124;BME280;13153;52.316;21.166;2023-01-25T07:24:18;102259.66;;;5.59;54.35
34124;BME280;13153;52.316;21.166;2023-01-25T07:26:45;102258.63;;;5.57;54.31
34124;BME280;13153;52.316;21.166;2023-01-25T07:29:14;102258.63;;;5.57;54.80
34124;BME280;13153;52.316;21.166;2023-01-25T07:31:41;102260.09;;;5.53;54.50
34124;BME280;13153;52.316;21.166;2023-01-25T07:34:10;102263.47;;;5.52;54.63
34124;BME280;13153;52.316;21.166;2023-01-25T07:36:38;102256.09;;;5.47;54.34
34124;BME280;13153;52.316;21.166;2023-01-25T07:39:04;102255.63;;;5.41;54.46
34124;BME280;13153;52.316;21.166;2023-01-25T07:41:30;102249.38;;;5.39;54.56
34124;BME280;13153;52.316;21.166;2023-01-25T07:43:57;102251.19;;;5.40;55.66
34124;BME280;13153;52.316;21.166;2023-01-25T07:46:23;102249.59;;;5.42;55.00
34124;BME280;13153;52.316;21.166;2023-01-25T07:48:51;102256.41;;;5.40;54.50
34124;BME280;13153;52.316;21.166;2023-01-25T07:51:20;102245.84;;;5.38;54.62
34124;BME280;13153;52.316;21.166;2023-01-25T07:53:57;102243.34;;;5.40;54.76
34124;BME280;13153;52.316;21.166;2023-01-25T07:56:33;102245.19;;;5.41;54.66
34124;BME280;13153;52.316;21.166;2023-01-25T07:59:00;102247.66;;;5.39;54.90
34124;BME280;13153;52.316;21.166;2023-01-25T08:01:30;102238.94;;;5.39;55.15
34124;BME280;13153;52.316;21.166;2023-01-25T08:04:00;102241.88;;;5.43;55.21
34124;BME280;13153;52.316;21.166;2023-01-25T08:06:30;102249.06;;;5.46;54.80
34124;BME280;13153;52.316;21.166;2023-01-25T08:09:03;102244.84;;;5.48;54.83
34124;BME280;13153;52.316;21.166;2023-01-25T08:11:30;102248.50;;;5.50;54.54
34124;BME280;13153;52.316;21.166;2023-01-25T08:13:56;102248.50;;;5.50;54.22
34124;BME280;13153;52.316;21.166;2023-01-25T08:16:25;102234.66;;;5.51;54.45
34124;BME280;13153;52.316;21.166;2023-01-25T08:18:58;102237.81;;;5.47;54.62
34124;BME280;13153;52.316;21.166;2023-01-25T08:21:26;102222.81;;;5.44;54.85
34124;BME280;13153;52.316;21.166;2023-01-25T08:24:00;102226.47;;;5.46;54.28
34124;BME280;13153;52.316;21.166;2023-01-25T08:26:28;102228.84;;;5.43;53.36
34124;BME280;13153;52.316;21.166;2023-01-25T08:28:54;102226.00;;;5.40;53.94
34124;BME280;13153;52.316;21.166;2023-01-25T08:31:24;102226.00;;;5.40;54.26
34124;BME280;13153;52.316;21.166;2023-01-25T08:33:51;102219.88;;;5.40;54.55
34124;BME280;13153;52.316;21.166;2023-01-25T08:36:19;102208.75;;;5.42;53.96
34124;BME280;13153;52.316;21.166;2023-01-25T08:38:46;102224.19;;;5.39;54.36
34124;BME280;13153;52.316;21.166;2023-01-25T08:41:17;102214.63;;;5.40;54.60
34124;BME280;13153;52.316;21.166;2023-01-25T08:43:45;102215.66;;;5.42;54.60
34124;BME280;13153;52.316;21.166;2023-01-25T08:46:13;102208.75;;;5.42;54.52
34124;BME280;13153;52.316;21.166;2023-01-25T08:48:39;102210.56;;;5.43;54.09
34124;BME280;13153;52.316;21.166;2023-01-25T08:51:12;102207.03;;;5.43;54.10
34124;BME280;13153;52.316;21.166;2023-01-25T08:53:38;102207.84;;;5.42;53.97
34124;BME280;13153;52.316;21.166;2023-01-25T08:56:10;102200.78;;;5.41;53.82
34124;BME280;13153;52.316;21.166;2023-01-25T08:58:41;102206.94;;;5.41;54.44
34124;BME280;13153;52.316;21.166;2023-01-25T09:01:09;102191.50;;;5.44;54.30
34124;BME280;13153;52.316;21.166;2023-01-25T09:03:38;102193.31;;;5.45;54.24
34124;BME280;13153;52.316;21.166;2023-01-25T09:06:06;102190.72;;;5.45;53.59
34124;BME280;13153;52.316;21.166;2023-01-25T09:08:33;102202.84;;;5.45;53.85
34124;BME280;13153;52.316;21.166;2023-01-25T09:11:28;102190.47;;;5.42;54.25
34124;BME280;13153;52.316;21.166;2023-01-25T09:13:53;102198.19;;;5.41;54.01
34124;BME280;13153;52.316;21.166;2023-01-25T09:16:22;102191.16;;;5.40;54.22
34124;BME280;13153;52.316;21.166;2023-01-25T09:18:58;102179.91;;;5.41;54.02
34124;BME280;13153;52.316;21.166;2023-01-25T09:21:24;102186.16;;;5.43;54.28
34124;BME280;13153;52.316;21.166;2023-01-25T09:23:52;102180.25;;;5.45;54.11
34124;BME280;13153;52.316;21.166;2023-01-25T09:26:18;102182.19;;;5.48;53.67
34124;BME280;13153;52.316;21.166;2023-01-25T09:28:50;102171.06;;;5.50;53.85
34124;BME280;13153;52.316;21.166;2023-01-25T09:31:17;102166.75;;;5.51;53.53
34124;BME280;13153;52.316;21.166;2023-01-25T09:33:43;102156.09;;;5.48;53.91
34124;BME280;13153;52.316;21.166;2023-01-25T09:36:10;102159.50;;;5.47;53.39
34124;BME280;13153;52.316;21.166;2023-01-25T09:38:36;102155.53;;;5.52;53.87
34124;BME280;13153;52.316;21.166;2023-01-25T09:41:58;102152.25;;;5.54;53.11
34124;BME280;13153;52.316;21.166;2023-01-25T09:44:47;102147.69;;;5.52;53.15
34124;BME280;13153;52.316;21.166;2023-01-25T09:47:23;102146.22;;;5.55;53.41
34124;BME280;13153;52.316;21.166;2023-01-25T09:50:16;102146.22;;;5.55;53.43
34124;BME280;13153;52.316;21.166;2023-01-25T09:55:32;102144.19;;;5.63;53.40
34124;BME280;13153;52.316;21.166;2023-01-25T09:58:01;102145.22;;;5.65;53.05
34124;BME280;13153;52.316;21.166;2023-01-25T10:00:33;102146.56;;;5.60;52.48
34124;BME280;13153;52.316;21.166;2023-01-25T10:03:24;102141.13;;;5.57;52.77
34124;BME280;13153;52.316;21.166;2023-01-25T10:05:57;102143.50;;;5.54;53.01
34124;BME280;13153;52.316;21.166;2023-01-25T10:11:23;102132.50;;;5.58;53.16
34124;BME280;13153;52.316;21.166;2023-01-25T10:13:50;102133.50;;;5.60;53.39
34124;BME280;13153;52.316;21.166;2023-01-25T10:16:33;102128.63;;;5.64;53.27
34124;BME280;13153;52.316;21.166;2023-01-25T10:22:28;102116.03;;;5.71;53.40
34124;BME280;13153;52.316;21.166;2023-01-25T10:26:01;102110.34;;;5.76;53.59
34124;BME280;13153;52.316;21.166;2023-01-25T10:31:27;102098.38;;;5.80;53.03
34124;BME280;13153;52.316;21.166;2023-01-25T10:33:57;102087.16;;;5.81;53.10
34124;BME280;13153;52.316;21.166;2023-01-25T10:36:29;102094.28;;;5.83;53.14
34124;BME280;13153;52.316;21.166;2023-01-25T10:38:55;102090.88;;;5.84;52.95
34124;BME280;13153;52.316;21.166;2023-01-25T10:41:56;102083.84;;;5.83;52.56
34124;BME280;13153;52.316;21.166;2023-01-25T10:44:25;102082.53;;;5.77;52.49
34124;BME280;13153;52.316;21.166;2023-01-25T10:49:50;102080.16;;;5.68;53.11
34124;BME280;13153;52.316;21.166;2023-01-25T10:52:26;102083.66;;;5.69;52.87
34124;BME280;13153;52.316;21.166;2023-01-25T10:57:41;102065.75;;;5.61;53.22
34124;BME280;13153;52.316;21.166;2023-01-25T11:02:50;102057.44;;;5.67;53.30
34124;BME280;13153;52.316;21.166;2023-01-25T11:05:33;102047.44;;;5.73;53.12
34124;BME280;13153;52.316;21.166;2023-01-25T11:08:38;102040.53;;;5.74;53.25
34124;BME280;13153;52.316;21.166;2023-01-25T11:11:26;102047.66;;;5.76;53.31
34124;BME280;13153;52.316;21.166;2023-01-25T11:13:55;102031.78;;;5.73;52.81
34124;BME280;13153;52.316;21.166;2023-01-25T11:16:30;102039.16;;;5.67;52.97
34124;BME280;13153;52.316;21.166;2023-01-25T11:18:58;102026.00;;;5.66;53.00
34124;BME280;13153;52.316;21.166;2023-01-25T11:21:31;102018.50;;;5.70;53.48
34124;BME280;13153;52.316;21.166;2023-01-25T11:26:38;102019.00;;;5.78;53.38
34124;BME280;13153;52.316;21.166;2023-01-25T11:29:20;102022.06;;;5.84;53.65
34124;BME280;13153;52.316;21.166;2023-01-25T11:31:50;102018.53;;;5.83;53.58
34124;BME280;13153;52.316;21.166;2023-01-25T11:34:24;102020.47;;;5.86;53.02
34124;BME280;13153;52.316;21.166;2023-01-25T11:37:24;102023.09;;;5.86;53.31
34124;BME280;13153;52.316;21.166;2023-01-25T11:51:52;102002.97;;;5.85;53.26
34124;BME280;13153;52.316;21.166;2023-01-25T11:54:31;101996.53;;;5.80;53.34
34124;BME280;13153;52.316;21.166;2023-01-25T11:57:44;101986.25;;;5.70;53.23
34124;BME280;13153;52.316;21.166;2023-01-25T12:01:02;101986.34;;;5.71;53.72
34124;BME280;13153;52.316;21.166;2023-01-25T12:07:00;101978.56;;;5.84;53.52
34124;BME280;13153;52.316;21.166;2023-01-25T12:12:37;101971.31;;;5.80;53.64
34124;BME280;13153;52.316;21.166;2023-01-25T12:26:28;101949.16;;;5.87;53.21
34124;BME280;13153;52.316;21.166;2023-01-25T12:29:30;101947.44;;;5.87;53.50
34124;BME280;13153;52.316;21.166;2023-01-25T12:32:23;101948.03;;;5.83;53.49
34124;BME280;13153;52.316;21.166;2023-01-25T12:35:28;101951.66;;;5.85;53.68
34124;BME280;13153;52.316;21.166;2023-01-25T12:38:02;101949.16;;;5.87;52.95
34124;BME280;13153;52.316;21.166;2023-01-25T12:41:03;101947.13;;;5.83;53.53
34124;BME280;13153;52.316;21.166;2023-01-25T12:43:55;101947.63;;;5.77;52.54
34124;BME280;13153;52.316;21.166;2023-01-25T12:46:39;101944.19;;;5.78;53.38
34124;BME280;13153;52.316;21.166;2023-01-25T12:49:24;101940.19;;;5.83;52.72
34124;BME280;13153;52.316;21.166;2023-01-25T12:51:54;101928.25;;;5.87;52.48
34124;BME280;13153;52.316;21.166;2023-01-25T12:54:42;101936.34;;;5.90;52.98
34124;BME280;13153;52.316;21.166;2023-01-25T12:57:36;101935.06;;;5.96;53.92
34124;BME280;13153;52.316;21.166;2023-01-25T13:05:55;101923.91;;;5.99;53.39
34124;BME280;13153;52.316;21.166;2023-01-25T13:11:26;101911.88;;;6.01;53.05
34124;BME280;13153;52.316;21.166;2023-01-25T13:16:53;101906.75;;;6.03;53.17
34124;BME280;13153;52.316;21.166;2023-01-25T13:21:56;101892.19;;;6.06;53.42
34124;BME280;13153;52.316;21.166;2023-01-25T13:24:28;101895.81;;;6.08;53.19
34124;BME280;13153;52.316;21.166;2023-01-25T13:32:10;101880.31;;;5.98;53.74
34124;BME280;13153;52.316;21.166;2023-01-25T13:39:46;101876.78;;;5.97;53.28
34124;BME280;13153;52.316;21.166;2023-01-25T13:44:56;101873.50;;;5.88;53.59
34124;BME280;13153;52.316;21.166;2023-01-25T13:47:31;101876.69;;;5.84;53.51
34124;BME280;13153;52.316;21.166;2023-01-25T13:50:22;101868.75;;;5.83;53.66
34124;BME280;13153;52.316;21.166;2023-01-25T13:53:02;101858.31;;;5.83;54.00
34124;BME280;13153;52.316;21.166;2023-01-25T13:55:38;101849.09;;;5.88;54.09
34124;BME280;13153;52.316;21.166;2023-01-25T13:58:22;101851.69;;;5.88;53.73
34124;BME280;13153;52.316;21.166;2023-01-25T14:00:58;101844.66;;;5.87;53.70
34124;BME280;13153;52.316;21.166;2023-01-25T14:03:46;101846.38;;;5.86;53.71
34124;BME280;13153;52.316;21.166;2023-01-25T14:08:52;101841.53;;;5.79;53.49
34124;BME280;13153;52.316;21.166;2023-01-25T14:11:44;101849.47;;;5.81;53.23
34124;BME280;13153;52.316;21.166;2023-01-25T14:16:45;101844.88;;;5.77;53.22
34124;BME280;13153;52.316;21.166;2023-01-25T14:19:26;101843.75;;;5.73;53.32
34124;BME280;13153;52.316;21.166;2023-01-25T14:22:24;101835.69;;;5.70;53.50
34124;BME280;13153;52.316;21.166;2023-01-25T14:25:20;101834.69;;;5.68;53.70
34124;BME280;13153;52.316;21.166;2023-01-25T14:27:58;101835.28;;;5.64;53.62
34124;BME280;13153;52.316;21.166;2023-01-25T14:30:27;101817.41;;;5.70;53.92
34124;BME280;13153;52.316;21.166;2023-01-25T14:33:14;101820.13;;;5.72;53.90
34124;BME280;13153;52.316;21.166;2023-01-25T14:35:44;101822.97;;;5.75;54.29
34124;BME280;13153;52.316;21.166;2023-01-25T14:38:27;101812.63;;;5.76;53.92
34124;BME280;13153;52.316;21.166;2023-01-25T14:41:21;101802.75;;;5.72;53.79
34124;BME280;13153;52.316;21.166;2023-01-25T14:43:53;101805.25;;;5.71;53.29
34124;BME280;13153;52.316;21.166;2023-01-25T14:46:27;101803.56;;;5.71;53.75
34124;BME280;13153;52.316;21.166;2023-01-25T14:52:02;101789.50;;;5.69;53.89
34124;BME280;13153;52.316;21.166;2023-01-25T14:54:34;101799.84;;;5.68;54.12
34124;BME280;13153;52.316;21.166;2023-01-25T14:57:06;101792.47;;;5.62;54.35